CWOB

Brevoort Island Airport

Canada

CWOB 230122Z AUTO 03020KT ////SM //// BKN007 OVC010 M03/M03 A2979

Observed Flight Rules
Sep-23 @ 01:22 UTC (51 minutes ago)
Unavailable
Wind Clouds
30° at 20 knots
  • Broken at 700' AGL
  • Overcast at 1,000' AGL
Temperatures Readings
Current -3°C / 27°F
Dewpoint -3°C / 27°F
Humidity 100%
Altimeter 29.79" Hg
Pressure 1009 hPa
Elevation 367
Observed Flight Rules
Sep-23 @ 01:22 UTC
(51 minutes ago)
UNK
Wind
30° at 20 knots
Clouds
  • Broken at 700' AGL
  • Overcast at 1,000' AGL
Temperature Dewpoint
-3°C / 27°F -3°C / 27°F
Humidity Altimeter Pressure
100% 29.79" Hg 1009 hPa